Time;durP1;ratioP1;P1;durP2;ratioP2;P2;SDS_P1;SDS_P2;PMS_P1;PMS_P2;Temp;Humidity;BMP_temperature;BMP_pressure;BME280_temperature;BME280_humidity;BME280_pressure;Samples;Min_cycle;Max_cycle;Signal;HPM_P1;HPM_P2
2022/07/28 00:00:27;;;;;;;8.52;5.65;;;;;;;19.75;100.00;96287.78;5037479;28;20076;-51
2022/07/28 00:02:57;;;;;;;12.35;6.53;;;;;;;19.72;100.00;96284.66;5043542;28;20103;-52
2022/07/28 00:05:26;;;;;;;7.75;5.70;;;;;;;19.62;100.00;96291.22;5047780;28;20073;-47
2022/07/28 00:07:55;;;;;;;6.78;5.80;;;;;;;19.89;100.00;96284.06;5046818;28;20096;-58
2022/07/28 00:10:23;;;;;;;7.43;5.90;;;;;;;19.80;100.00;96287.97;5043086;28;20087;-53
2022/07/28 00:12:52;;;;;;;9.13;6.22;;;;;;;19.83;100.00;96284.06;5045035;28;20076;-47
2022/07/28 00:15:20;;;;;;;8.57;6.63;;;;;;;19.78;100.00;96281.16;5043517;28;22167;-53
2022/07/28 00:17:48;;;;;;;7.88;6.00;;;;;;;19.77;100.00;96279.53;5042234;28;20089;-49
2022/07/28 00:20:19;;;;;;;7.40;6.28;;;;;;;19.82;100.00;96279.72;5046396;28;20088;-53
2022/07/28 00:22:48;;;;;;;7.80;6.40;;;;;;;19.83;100.00;96276.84;5040629;28;20081;-48
2022/07/28 00:25:16;;;;;;;7.22;6.13;;;;;;;19.89;100.00;96277.88;5043391;28;20546;-50
2022/07/28 00:27:44;;;;;;;9.98;6.35;;;;;;;19.81;100.00;96270.03;5046298;28;20468;-50
2022/07/28 00:30:13;;;;;;;9.10;6.25;;;;;;;19.87;100.00;96274.56;5044026;28;20087;-48
2022/07/28 00:32:42;;;;;;;12.30;6.53;;;;;;;19.61;100.00;96270.88;5044635;28;20080;-49
2022/07/28 00:35:11;;;;;;;7.68;6.35;;;;;;;19.68;100.00;96268.19;5045154;28;20076;-50
2022/07/28 00:37:43;;;;;;;7.32;6.20;;;;;;;19.90;100.00;96266.94;5046422;28;20084;-47
2022/07/28 00:40:16;;;;;;;7.78;6.20;;;;;;;19.81;100.00;96268.19;5043894;28;20076;-48
2022/07/28 00:42:44;;;;;;;7.40;6.15;;;;;;;19.65;100.00;96266.78;5047368;28;20091;-47
2022/07/28 00:45:13;;;;;;;7.13;6.43;;;;;;;19.54;100.00;96277.22;5042968;28;20157;-47
2022/07/28 00:47:41;;;;;;;7.80;6.70;;;;;;;19.64;100.00;96273.13;5046902;28;20076;-53
2022/07/28 00:50:11;;;;;;;10.00;7.20;;;;;;;19.62;100.00;96269.00;5046995;28;20130;-49
2022/07/28 00:52:40;;;;;;;8.23;7.00;;;;;;;19.61;100.00;96270.88;5043060;28;20077;-51
2022/07/28 00:55:10;;;;;;;9.75;7.10;;;;;;;19.66;100.00;96268.41;5037407;28;20528;-52
2022/07/28 00:57:40;;;;;;;7.53;6.82;;;;;;;19.65;100.00;96263.28;5043431;28;20072;-47
2022/07/28 01:00:11;;;;;;;9.02;6.75;;;;;;;19.53;100.00;96267.56;5044556;28;20081;-47
2022/07/28 01:02:39;;;;;;;;;;;;;;;19.49;100.00;96267.16;5047217;28;20448;-46
2022/07/28 01:05:08;;;;;;;10.50;7.18;;;;;;;19.57;100.00;96255.41;5044921;28;19968;-46
2022/07/28 01:07:41;;;;;;;10.20;7.28;;;;;;;19.40;100.00;96258.50;5042764;28;20081;-53
2022/07/28 01:10:16;;;;;;;10.48;7.43;;;;;;;19.44;100.00;96265.09;5036224;28;20688;-47
2022/07/28 01:12:49;;;;;;;8.43;7.45;;;;;;;19.25;100.00;96249.84;5043110;28;21739;-50
2022/07/28 01:15:23;;;;;;;9.30;7.82;;;;;;;19.18;100.00;96249.03;5043207;28;20068;-47
2022/07/28 01:17:59;;;;;;;10.25;8.07;;;;;;;19.20;100.00;96249.63;5042509;28;20091;-54
2022/07/28 01:20:31;;;;;;;10.07;8.18;;;;;;;19.24;100.00;96245.53;5041819;28;20092;-51
2022/07/28 01:23:19;;;;;;;10.57;8.57;;;;;;;19.19;100.00;96246.13;5041169;28;20096;-54
2022/07/28 01:26:02;;;;;;;9.82;8.43;;;;;;;19.14;100.00;96253.13;5043991;28;20069;-46
2022/07/28 01:28:44;;;;;;;11.02;9.07;;;;;;;19.11;100.00;96250.88;5045380;28;20085;-53
2022/07/28 01:31:19;;;;;;;10.25;8.73;;;;;;;18.98;100.00;96241.78;5046514;28;20073;-48
2022/07/28 01:33:51;;;;;;;10.30;9.20;;;;;;;19.02;100.00;96244.06;5042312;28;20081;-50
2022/07/28 01:36:23;;;;;;;10.50;8.60;;;;;;;19.13;100.00;96238.94;5046310;28;20072;-52
2022/07/28 01:38:52;;;;;;;9.77;8.75;;;;;;;18.99;100.00;96234.59;5042518;28;20421;-48
2022/07/28 01:41:22;;;;;;;10.10;9.10;;;;;;;19.10;100.00;96236.69;5040054;28;20158;-54
2022/07/28 01:43:56;;;;;;;11.30;9.55;;;;;;;19.06;100.00;96235.41;5044970;28;20092;-49
2022/07/28 01:46:27;;;;;;;11.07;9.80;;;;;;;19.06;100.00;96227.41;5041703;28;20092;-51
2022/07/28 01:48:57;;;;;;;11.88;9.75;;;;;;;18.95;100.00;96228.81;5044913;28;20088;-49
2022/07/28 01:51:28;;;;;;;10.52;9.43;;;;;;;19.09;100.00;96227.00;5042305;28;20103;-51
2022/07/28 01:53:58;;;;;;;11.05;9.48;;;;;;;18.88;100.00;96221.81;5041352;28;20535;-49
2022/07/28 01:56:29;;;;;;;12.85;10.30;;;;;;;19.08;100.00;96213.84;5037815;28;20558;-47
2022/07/28 01:59:00;;;;;;;14.20;10.68;;;;;;;18.96;100.00;96217.13;5037070;28;20085;-53
2022/07/28 02:01:32;;;;;;;12.85;10.10;;;;;;;19.04;100.00;96215.28;5038687;28;20081;-48
2022/07/28 02:04:01;;;;;;;14.30;11.00;;;;;;;19.00;100.00;96216.72;5038821;28;20053;-48
2022/07/28 02:06:30;;;;;;;11.80;10.40;;;;;;;19.11;100.00;96216.94;5041456;28;20109;-52
2022/07/28 02:09:00;;;;;;;12.52;10.48;;;;;;;18.95;100.00;96210.13;5042315;28;20081;-47
2022/07/28 02:11:41;;;;;;;12.00;10.55;;;;;;;18.84;100.00;96218.72;5042297;28;20640;-56
2022/07/28 02:14:12;;;;;;;11.80;10.18;;;;;;;18.95;100.00;96214.66;5041243;28;20080;-53
2022/07/28 02:16:45;;;;;;;15.15;11.63;;;;;;;18.74;100.00;96207.63;5043814;28;20073;-47
2022/07/28 02:19:14;;;;;;;12.82;10.63;;;;;;;18.87;100.00;96209.50;5040350;28;20561;-59
2022/07/28 02:21:46;;;;;;;14.45;11.55;;;;;;;18.69;100.00;96213.53;5038374;28;20084;-53
2022/07/28 02:24:18;;;;;;;15.10;11.80;;;;;;;18.84;100.00;96215.25;5041681;28;20076;-47
2022/07/28 02:26:51;;;;;;;15.48;11.30;;;;;;;18.86;100.00;96211.34;5049155;28;20077;-48
2022/07/28 02:29:23;;;;;;;14.45;12.00;;;;;;;18.89;100.00;96210.09;5044723;28;20080;-53
2022/07/28 02:32:17;;;;;;;14.60;11.45;;;;;;;18.81;100.00;96211.13;5045766;28;20545;-50
2022/07/28 02:34:59;;;;;;;13.93;11.95;;;;;;;18.83;100.00;96218.94;5047777;28;20477;-54
2022/07/28 02:37:33;;;;;;;14.30;11.75;;;;;;;18.85;100.00;96214.22;5047961;28;20531;-49
2022/07/28 02:40:03;;;;;;;13.23;11.20;;;;;;;18.80;100.00;96206.00;5046208;28;20477;-58
2022/07/28 02:42:33;;;;;;;20.13;11.65;;;;;;;18.73;100.00;96201.44;5045288;28;20084;-49
2022/07/28 02:45:05;;;;;;;14.18;12.52;;;;;;;18.69;100.00;96207.38;5044946;28;22488;-55
2022/07/28 02:47:39;;;;;;;13.57;12.13;;;;;;;18.55;100.00;96208.34;5046448;28;20065;-57
2022/07/28 02:50:08;;;;;;;15.32;12.10;;;;;;;18.78;100.00;96211.53;5046456;28;20084;-47
2022/07/28 02:52:37;;;;;;;15.95;12.48;;;;;;;18.64;100.00;96199.13;5047202;28;20084;-49
2022/07/28 02:55:06;;;;;;;13.27;11.88;;;;;;;18.83;100.00;96206.41;5047400;28;20088;-49
2022/07/28 02:57:35;;;;;;;14.82;12.77;;;;;;;18.80;100.00;96206.00;5045465;28;20075;-52
2022/07/28 03:00:05;;;;;;;16.00;12.50;;;;;;;18.78;100.00;96206.19;5044046;28;20091;-54
2022/07/28 03:02:35;;;;;;;13.88;12.15;;;;;;;18.73;100.00;96209.47;5043788;28;20511;-50
2022/07/28 03:05:04;;;;;;;;;;;;;;;18.79;100.00;96201.66;5044940;28;20092;-54
2022/07/28 03:07:38;;;;;;;16.05;13.20;;;;;;;18.79;100.00;96207.84;5047022;28;19974;-48
2022/07/28 03:10:20;;;;;;;16.17;12.57;;;;;;;18.62;100.00;96214.56;5045718;28;20084;-51
2022/07/28 03:13:02;;;;;;;15.02;13.15;;;;;;;18.60;100.00;96212.06;5044537;28;20107;-51
2022/07/28 03:15:31;;;;;;;16.35;13.57;;;;;;;18.63;100.00;96216.19;5046705;28;20088;-51
2022/07/28 03:18:02;;;;;;;15.93;14.23;;;;;;;18.67;100.00;96217.44;5045022;28;20084;-52
2022/07/28 03:20:31;;;;;;;15.73;13.13;;;;;;;18.60;100.00;96217.41;5045918;28;20085;-50
2022/07/28 03:22:59;;;;;;;18.30;13.70;;;;;;;18.55;100.00;96219.88;5043534;28;20472;-46
2022/07/28 03:25:33;;;;;;;15.38;13.63;;;;;;;18.53;100.00;96223.75;5046201;28;20089;-54
2022/07/28 03:28:03;;;;;;;17.10;13.52;;;;;;;18.72;100.00;96223.84;5047247;28;20091;-51
2022/07/28 03:30:35;;;;;;;17.50;13.48;;;;;;;18.59;100.00;96215.78;5044795;28;20794;-46
2022/07/28 03:33:05;;;;;;;17.15;13.05;;;;;;;18.77;100.00;96223.25;5045299;28;20084;-48
2022/07/28 03:35:35;;;;;;;17.95;13.63;;;;;;;18.50;100.00;96228.47;5046214;28;20088;-48
2022/07/28 03:38:08;;;;;;;15.95;14.25;;;;;;;18.68;100.00;96227.91;5044466;28;20534;-52
2022/07/28 03:40:37;;;;;;;15.93;13.85;;;;;;;18.74;100.00;96229.81;5045921;28;20081;-47
2022/07/28 03:43:07;;;;;;;17.70;14.30;;;;;;;18.64;100.00;96232.00;5027558;28;20089;-51
2022/07/28 03:45:36;;;;;;;19.98;13.55;;;;;;;18.73;100.00;96225.50;5043818;28;20087;-51
2022/07/28 03:48:09;;;;;;;16.40;14.00;;;;;;;18.62;100.00;96227.91;5042190;28;20133;-48
2022/07/28 03:50:38;;;;;;;15.13;13.07;;;;;;;18.56;100.00;96226.84;5028325;28;20064;-53
2022/07/28 03:53:19;;;;;;;17.67;13.18;;;;;;;18.45;100.00;96222.09;5043318;28;20073;-56
2022/07/28 03:55:49;;;;;;;16.77;14.40;;;;;;;18.43;100.00;96230.28;5045090;28;20104;-51
2022/07/28 03:58:19;;;;;;;19.02;14.55;;;;;;;18.49;100.00;96232.16;5044233;28;20048;-57
2022/07/28 04:00:48;;;;;;;18.05;14.45;;;;;;;18.41;100.00;96228.84;5023686;28;20073;-49
2022/07/28 04:03:18;;;;;;;15.57;13.65;;;;;;;18.58;100.00;96229.31;5043991;28;20060;-54
2022/07/28 04:06:04;;;;;;;19.13;14.80;;;;;;;18.57;100.00;96223.16;5044598;28;20076;-51
2022/07/28 04:08:32;;;;;;;15.35;13.10;;;;;;;18.79;100.00;96223.03;5045346;28;20360;-47
2022/07/28 04:11:01;;;;;;;14.52;12.98;;;;;;;18.91;100.00;96218.75;5045154;28;20102;-55
2022/07/28 04:13:30;;;;;;;17.98;13.52;;;;;;;19.31;100.00;96219.63;5043978;28;20080;-50
2022/07/28 04:15:59;;;;;;;14.75;13.05;;;;;;;19.92;100.00;96213.19;5045162;28;20092;-54
2022/07/28 04:18:29;;;;;;;15.23;12.75;;;;;;;19.91;100.00;96220.41;5044931;28;20123;-47
2022/07/28 04:20:57;;;;;;;15.55;13.38;;;;;;;20.21;100.00;96214.59;5045804;28;20064;-52
2022/07/28 04:23:26;;;;;;;15.60;13.23;;;;;;;20.78;100.00;96218.25;5044134;28;20080;-48
2022/07/28 04:25:54;;;;;;;17.40;12.70;;;;;;;21.23;100.00;96215.53;5044933;28;20068;-56
2022/07/28 04:28:23;;;;;;;13.48;11.27;;;;;;;20.67;100.00;96213.59;5044411;28;20084;-51
2022/07/28 04:30:51;;;;;;;15.38;12.13;;;;;;;20.50;100.00;96220.44;5045442;28;20088;-49
2022/07/28 04:33:20;;;;;;;14.55;12.77;;;;;;;20.70;100.00;96215.03;5043841;28;20095;-53
2022/07/28 04:35:51;;;;;;;15.00;12.40;;;;;;;21.25;100.00;96208.06;5043581;28;20097;-58
2022/07/28 04:38:20;;;;;;;15.32;11.80;;;;;;;20.69;100.00;96216.06;5045385;28;20076;-53
2022/07/28 04:40:49;;;;;;;13.95;11.93;;;;;;;20.74;100.00;96218.91;5047010;28;20792;-54
2022/07/28 04:43:17;;;;;;;16.85;12.43;;;;;;;20.41;100.00;96225.22;5045021;28;20076;-53
2022/07/28 04:45:50;;;;;;;17.13;12.38;;;;;;;20.06;100.00;96230.91;5046846;28;20527;-53
2022/07/28 04:48:22;;;;;;;17.30;13.00;;;;;;;20.13;100.00;96229.03;5041909;28;20080;-49
2022/07/28 04:50:52;;;;;;;16.42;12.90;;;;;;;20.82;100.00;96229.41;5043176;28;20111;-56
2022/07/28 04:53:21;;;;;;;15.65;13.30;;;;;;;21.69;100.00;96219.72;5042123;28;20156;-47
2022/07/28 04:55:50;;;;;;;16.98;12.13;;;;;;;21.76;100.00;96220.47;5042523;28;20096;-52
2022/07/28 04:58:22;;;;;;;14.65;11.70;;;;;;;22.01;100.00;96222.28;5042236;28;20138;-49
2022/07/28 05:00:51;;;;;;;15.05;12.10;;;;;;;22.63;100.00;96217.69;5044089;28;20081;-46
2022/07/28 05:03:20;;;;;;;14.07;11.75;;;;;;;23.06;100.00;96222.09;5042329;28;20091;-52
2022/07/28 05:05:49;;;;;;;13.27;10.88;;;;;;;22.69;100.00;96221.34;5049613;28;20103;-52
2022/07/28 05:08:23;;;;;;;12.82;11.48;;;;;;;22.71;100.00;96220.06;5049382;28;20076;-55
2022/07/28 05:10:55;;;;;;;12.98;11.13;;;;;;;22.80;100.00;96230.50;5049428;28;20089;-48
2022/07/28 05:13:23;;;;;;;;;;;;;;;23.48;100.00;96224.75;5049617;28;20480;-49
2022/07/28 05:16:00;;;;;;;12.52;11.25;;;;;;;23.41;100.00;96227.56;5049580;28;20002;-53
2022/07/28 05:18:29;;;;;;;11.95;10.30;;;;;;;23.30;100.00;96228.38;5042972;28;20085;-52
2022/07/28 05:20:57;;;;;;;13.40;10.05;;;;;;;23.12;100.00;96236.47;5048924;28;20084;-52
2022/07/28 05:23:27;;;;;;;13.05;11.30;;;;;;;23.20;100.00;96228.91;5050384;28;20083;-48
2022/07/28 05:25:55;;;;;;;13.48;10.23;;;;;;;23.31;100.00;96230.00;5055107;28;20068;-51
2022/07/28 05:28:24;;;;;;;13.88;10.00;;;;;;;23.57;100.00;96228.78;5049305;28;20081;-51
2022/07/28 05:30:52;;;;;;;10.48;9.38;;;;;;;23.67;100.00;96222.78;5050176;28;20529;-51
2022/07/28 05:33:21;;;;;;;11.43;10.15;;;;;;;23.34;100.00;96221.47;5048751;28;20087;-57
2022/07/28 05:35:53;;;;;;;11.45;9.32;;;;;;;24.10;100.00;96218.97;5049094;28;20601;-53
2022/07/28 05:38:21;;;;;;;12.45;9.13;;;;;;;22.97;100.00;96226.97;5048927;28;20064;-53
2022/07/28 05:40:51;;;;;;;10.80;9.73;;;;;;;23.83;100.00;96219.44;5030320;28;20084;-51
2022/07/28 05:43:20;;;;;;;9.50;8.50;;;;;;;23.89;100.00;96231.97;5048609;28;20084;-56
2022/07/28 05:45:49;;;;;;;10.10;8.98;;;;;;;23.86;100.00;96224.34;5048883;28;20091;-50
2022/07/28 05:48:18;;;;;;;9.85;8.85;;;;;;;23.98;100.00;96231.59;5049132;28;20079;-52
2022/07/28 05:50:47;;;;;;;10.43;8.67;;;;;;;24.17;100.00;96222.34;5048898;28;20527;-49
2022/07/28 05:53:16;;;;;;;9.27;8.27;;;;;;;24.04;100.00;96230.66;5047372;28;20518;-51
2022/07/28 05:55:45;;;;;;;10.77;8.80;;;;;;;23.29;100.00;96240.16;5044158;28;20084;-53
2022/07/28 05:58:30;;;;;;;10.77;9.07;;;;;;;22.62;100.00;96237.53;5048001;28;20069;-51
2022/07/28 06:01:00;;;;;;;10.20;8.73;;;;;;;22.37;100.00;96240.34;5052122;28;20064;-49
2022/07/28 06:03:30;;;;;;;;;;;;;;;22.49;100.00;96248.44;5048857;28;20079;-52
2022/07/28 06:05:59;;;;;;;12.27;8.73;;;;;;;22.22;100.00;96242.56;5052737;28;19952;-47
2022/07/28 06:08:45;;;;;;;9.27;8.20;;;;;;;22.77;100.00;96239.81;5047920;28;20081;-48
2022/07/28 06:11:15;;;;;;;10.80;8.75;;;;;;;22.64;100.00;96237.31;5046918;28;20075;-51
2022/07/28 06:13:52;;;;;;;13.38;9.23;;;;;;;21.96;100.00;96236.41;5052462;28;20538;-51
2022/07/28 06:16:21;;;;;;;10.45;8.43;;;;;;;21.98;100.00;96234.28;5052797;28;20088;-51
2022/07/28 06:18:51;;;;;;;12.65;9.50;;;;;;;22.03;100.00;96247.88;5048484;28;20077;-51
2022/07/28 06:21:19;;;;;;;11.30;8.68;;;;;;;22.28;100.00;96236.28;5049801;28;20085;-51
2022/07/28 06:23:48;;;;;;;11.65;8.65;;;;;;;21.58;100.00;96233.03;5052246;28;20091;-46
2022/07/28 06:26:16;;;;;;;10.98;8.13;;;;;;;22.70;100.00;96241.78;5052593;28;20152;-51
2022/07/28 06:28:45;;;;;;;11.50;8.38;;;;;;;22.49;100.00;96235.00;5048709;28;20085;-51
2022/07/28 06:31:15;;;;;;;9.15;7.97;;;;;;;22.27;100.00;96240.84;5052435;28;20565;-49
2022/07/28 06:33:43;;;;;;;13.00;8.57;;;;;;;22.62;100.00;96234.84;5052300;28;20103;-47
2022/07/28 06:36:12;;;;;;;10.73;8.80;;;;;;;22.15;100.00;96242.63;5052278;28;20088;-48
2022/07/28 06:38:40;;;;;;;9.88;7.88;;;;;;;22.83;100.00;96236.25;5052278;28;20072;-51
2022/07/28 06:41:09;;;;;;;10.15;8.32;;;;;;;22.53;100.00;96241.56;5051739;28;20084;-49
2022/07/28 06:43:37;;;;;;;9.23;7.80;;;;;;;22.14;100.00;96240.13;5052226;28;20067;-55
2022/07/28 06:46:07;;;;;;;10.38;8.70;;;;;;;22.56;100.00;96243.00;5052113;28;20102;-52
2022/07/28 06:48:38;;;;;;;11.50;7.82;;;;;;;22.35;100.00;96242.41;5044336;28;20065;-48
2022/07/28 06:51:06;;;;;;;11.00;7.72;;;;;;;22.33;100.00;96251.72;5049510;28;20073;-48
2022/07/28 06:53:35;;;;;;;8.82;7.75;;;;;;;22.52;100.00;96243.44;5046364;28;20081;-52
2022/07/28 06:56:05;;;;;;;10.57;7.93;;;;;;;23.17;100.00;96245.53;5045707;28;20084;-53
2022/07/28 06:58:34;;;;;;;;;;;;;;;22.90;100.00;96236.97;5048767;28;20541;-49
2022/07/28 07:01:06;;;;;;;9.15;7.20;;;;;;;23.42;100.00;96241.84;5051325;28;19979;-50
2022/07/28 07:03:36;;;;;;;10.55;7.85;;;;;;;23.63;100.00;96235.88;5048325;28;20096;-50
2022/07/28 07:06:05;;;;;;;9.60;7.18;;;;;;;22.94;100.00;96237.38;5051412;28;20088;-50
2022/07/28 07:08:34;;;;;;;8.40;7.60;;;;;;;23.48;100.00;96237.41;5051748;28;20424;-51
2022/07/28 07:11:02;;;;;;;8.57;7.53;;;;;;;23.62;100.00;96239.66;5050411;28;20068;-46
2022/07/28 07:13:31;;;;;;;9.70;7.50;;;;;;;23.37;100.00;96237.16;5051390;28;20081;-52
2022/07/28 07:16:00;;;;;;;11.20;7.45;;;;;;;23.59;100.00;96233.91;5051345;28;20095;-47
2022/07/28 07:18:29;;;;;;;8.38;7.03;;;;;;;23.58;100.00;96240.34;5055393;28;20091;-52
2022/07/28 07:20:59;;;;;;;8.75;7.28;;;;;;;23.54;100.00;96239.19;5047665;28;20093;-49
2022/07/28 07:23:27;;;;;;;11.13;8.32;;;;;;;23.32;100.00;96238.88;5051065;28;20088;-47
2022/07/28 07:25:56;;;;;;;10.48;6.32;;;;;;;23.80;100.00;96237.94;5051358;28;20095;-53
2022/07/28 07:28:24;;;;;;;7.13;6.32;;;;;;;23.96;100.00;96218.38;5033153;28;20091;-49
2022/07/28 07:30:53;;;;;;;9.45;6.50;;;;;;;24.66;100.00;96227.44;5051329;28;20060;-51
2022/07/28 07:33:21;;;;;;;8.13;7.03;;;;;;;24.26;100.00;96214.69;5050812;28;20531;-53
2022/07/28 07:35:51;;;;;;;8.25;6.60;;;;;;;24.07;100.00;96211.34;5051357;28;20080;-49
2022/07/28 07:38:21;;;;;;;7.47;6.32;;;;;;;24.39;100.00;96217.16;5052006;28;20854;-52
2022/07/28 07:40:56;;;;;;;7.93;6.50;;;;;;;24.43;100.00;96218.34;5050839;28;20088;-46
2022/07/28 07:43:24;;;;;;;9.20;7.30;;;;;;;24.12;100.00;96209.59;5050614;28;20103;-54
2022/07/28 07:45:53;;;;;;;7.97;6.38;;;;;;;24.63;100.00;96212.53;5048719;28;20084;-51
2022/07/28 07:48:22;;;;;;;7.25;6.55;;;;;;;24.21;100.00;96212.72;5042016;28;20088;-47
2022/07/28 07:50:51;;;;;;;9.15;6.47;;;;;;;24.63;100.00;96204.44;5050512;28;20080;-48
2022/07/28 07:53:23;;;;;;;10.13;6.53;;;;;;;25.01;100.00;96208.41;5044172;28;20099;-55
2022/07/28 07:55:51;;;;;;;8.63;6.40;;;;;;;24.47;100.00;96205.22;5050703;28;20076;-48
2022/07/28 07:58:20;;;;;;;7.32;5.68;;;;;;;24.95;100.00;96203.97;5050765;28;20080;-56
2022/07/28 08:00:48;;;;;;;9.90;6.15;;;;;;;24.78;100.00;96204.75;5049842;28;20083;-49
2022/07/28 08:03:17;;;;;;;9.38;6.15;;;;;;;24.54;100.00;96204.03;5050390;28;20460;-53
2022/07/28 08:05:53;;;;;;;9.18;6.40;;;;;;;24.80;100.00;96208.03;5050515;28;20071;-51
2022/07/28 08:08:24;;;;;;;8.60;6.00;;;;;;;25.40;100.00;96201.31;5044225;28;20088;-52
2022/07/28 08:10:53;;;;;;;6.88;5.78;;;;;;;25.47;100.00;96196.56;5044221;28;20061;-52
2022/07/28 08:13:22;;;;;;;6.82;5.97;;;;;;;25.52;100.00;96196.63;5050630;28;20068;-53
2022/07/28 08:15:50;;;;;;;7.50;6.03;;;;;;;25.48;100.00;96203.59;5045438;28;20091;-51
2022/07/28 08:18:19;;;;;;;8.07;5.95;;;;;;;24.59;100.00;96212.19;5050385;28;20515;-50
2022/07/28 08:20:47;;;;;;;7.95;5.80;;;;;;;25.48;100.00;96205.47;5029451;28;20080;-52
2022/07/28 08:23:16;;;;;;;6.57;5.53;;;;;;;25.10;100.00;96212.34;5049425;28;20077;-51
2022/07/28 08:25:51;;;;;;;7.72;4.45;;;;;;;25.69;100.00;96206.63;5049185;28;20849;-53
2022/07/28 08:28:19;;;;;;;8.88;5.20;;;;;;;25.72;100.00;96214.22;5049808;28;20091;-54
2022/07/28 08:30:51;;;;;;;8.20;5.20;;;;;;;25.92;100.00;96208.34;5049115;28;20075;-48
2022/07/28 08:33:20;;;;;;;6.43;4.80;;;;;;;26.02;100.00;96203.09;5050024;28;20115;-50
2022/07/28 08:35:49;;;;;;;7.10;5.13;;;;;;;25.97;100.00;96208.41;5050140;28;20126;-55
2022/07/28 08:38:18;;;;;;;6.32;5.00;;;;;;;26.00;100.00;96210.63;5050368;28;20100;-47
2022/07/28 08:40:49;;;;;;;6.90;4.95;;;;;;;26.17;100.00;96206.00;5049835;28;20083;-47
2022/07/28 08:43:28;;;;;;;7.07;4.95;;;;;;;26.07;100.00;96191.53;5038276;28;20080;-47
2022/07/28 08:45:57;;;;;;;6.65;4.80;;;;;;;26.08;100.00;96202.06;5048803;28;20076;-57
2022/07/28 08:48:28;;;;;;;6.72;5.07;;;;;;;26.01;100.00;96201.44;5046970;28;20099;-54
2022/07/28 08:51:00;;;;;;;5.85;4.38;;;;;;;26.13;100.00;96194.06;5044136;28;20078;-53
2022/07/28 08:53:29;;;;;;;7.10;4.32;;;;;;;25.83;100.00;96194.44;5049661;28;20088;-56
2022/07/28 08:56:01;;;;;;;8.88;4.70;;;;;;;26.10;100.00;96188.34;5049556;28;20477;-53
2022/07/28 08:58:33;;;;;;;7.45;4.38;;;;;;;26.87;100.00;96192.78;5043427;28;20704;-50
2022/07/28 09:01:01;;;;;;;11.60;5.30;;;;;;;26.55;100.00;96195.41;5049030;28;20487;-50
2022/07/28 09:03:30;;;;;;;7.05;4.50;;;;;;;26.75;100.00;96191.06;5049495;28;20076;-53
2022/07/28 09:05:58;;;;;;;6.40;4.68;;;;;;;26.56;100.00;96199.75;5049501;28;20471;-52
2022/07/28 09:08:26;;;;;;;5.22;4.10;;;;;;;26.99;100.00;96207.81;5049198;28;20561;-53
2022/07/28 09:10:55;;;;;;;7.90;4.32;;;;;;;26.73;100.00;96192.38;5048460;28;20553;-50
2022/07/28 09:13:23;;;;;;;7.68;4.15;;;;;;;26.78;100.00;96202.47;5047614;28;20081;-50
2022/07/28 09:15:53;;;;;;;6.43;4.30;;;;;;;26.96;100.00;96205.63;5056071;28;20305;-50
2022/07/28 09:18:22;;;;;;;7.03;4.15;;;;;;;26.78;100.00;96199.75;5049521;28;20072;-50
2022/07/28 09:20:50;;;;;;;7.10;4.50;;;;;;;26.52;100.00;96202.97;5049445;28;20076;-56
2022/07/28 09:23:19;;;;;;;4.97;3.83;;;;;;;26.68;100.00;96195.03;5049453;28;20084;-52
2022/07/28 09:26:09;;;;;;;5.25;4.00;;;;;;;26.43;100.00;96198.22;5031002;28;20068;-47
2022/07/28 09:28:50;;;;;;;5.47;4.10;;;;;;;26.35;100.00;96198.66;5049357;28;20085;-51
2022/07/28 09:31:21;;;;;;;7.63;4.45;;;;;;;27.05;100.00;96191.63;5048443;28;20073;-53
2022/07/28 09:33:59;;;;;;;5.82;4.03;;;;;;;27.03;100.00;96196.50;5048432;28;20476;-51
2022/07/28 09:36:29;;;;;;;8.20;4.15;;;;;;;26.31;100.00;96200.22;5044799;28;20526;-52
2022/07/28 09:38:57;;;;;;;7.45;4.32;;;;;;;26.60;100.00;96196.31;5046464;28;20085;-54
2022/07/28 09:41:26;;;;;;;8.77;4.00;;;;;;;26.43;100.00;96185.53;5041574;28;20073;-48
2022/07/28 09:43:55;;;;;;;5.40;3.80;;;;;;;26.58;100.00;96187.63;5048534;28;20068;-51
2022/07/28 09:46:26;;;;;;;5.53;3.70;;;;;;;27.07;100.00;96192.19;5045700;28;20084;-47
2022/07/28 09:48:58;;;;;;;6.63;3.90;;;;;;;27.21;100.00;96186.13;5049342;28;20076;-49
2022/07/28 09:51:29;;;;;;;6.03;3.78;;;;;;;27.39;100.00;96187.66;5043378;28;20084;-53
2022/07/28 09:54:08;;;;;;;6.18;4.18;;;;;;;27.52;100.00;96180.97;5048969;28;20073;-49
2022/07/28 09:56:38;;;;;;;6.72;3.90;;;;;;;27.27;100.00;96186.19;5048026;28;20095;-49
2022/07/28 09:59:07;;;;;;;7.45;3.78;;;;;;;27.12;100.00;96179.56;5048689;28;20083;-58
2022/07/28 10:01:52;;;;;;;5.65;3.83;;;;;;;27.10;100.00;96183.56;5048417;28;20088;-50
2022/07/28 10:04:31;;;;;;;7.65;3.97;;;;;;;27.50;98.57;96176.91;5043881;28;20162;-52
2022/07/28 10:07:05;;;;;;;5.45;3.50;;;;;;;27.47;97.15;96172.81;5049074;28;20502;-52
2022/07/28 10:09:34;;;;;;;4.90;3.55;;;;;;;27.54;100.00;96183.44;5048208;28;20080;-54
2022/07/28 10:12:16;;;;;;;6.70;3.65;;;;;;;27.57;94.18;96167.47;5048899;28;20077;-52
2022/07/28 10:14:46;;;;;;;5.53;3.78;;;;;;;27.35;95.29;96172.16;5048941;28;20056;-47
2022/07/28 10:17:27;;;;;;;4.75;3.45;;;;;;;27.70;92.14;96171.63;5042155;28;20092;-48
2022/07/28 10:19:57;;;;;;;6.18;3.47;;;;;;;27.59;93.96;96172.63;5046044;28;20099;-52
2022/07/28 10:22:28;;;;;;;4.53;3.40;;;;;;;27.84;91.09;96167.44;5047147;28;20068;-51
2022/07/28 10:24:58;;;;;;;5.40;3.72;;;;;;;27.59;95.40;96167.22;5030067;28;20081;-52
2022/07/28 10:27:28;;;;;;;4.95;3.78;;;;;;;27.81;91.17;96162.53;5040087;28;20537;-49
2022/07/28 10:29:58;;;;;;;5.80;3.45;;;;;;;28.07;90.17;96163.47;5046506;28;20452;-52
2022/07/28 10:32:29;;;;;;;4.60;3.63;;;;;;;28.16;77.68;96156.50;5043208;28;20033;-52
2022/07/28 10:35:02;;;;;;;4.43;3.20;;;;;;;28.56;83.80;96154.22;5044862;28;20061;-48
2022/07/28 10:37:31;;;;;;;6.18;3.60;;;;;;;28.72;83.66;96153.19;5037665;28;20088;-47
2022/07/28 10:40:04;;;;;;;5.20;3.63;;;;;;;28.75;78.98;96149.94;5045142;28;20088;-51
2022/07/28 10:42:39;;;;;;;7.72;4.18;;;;;;;28.28;74.47;96158.97;5042056;28;20080;-48
2022/07/28 10:45:25;;;;;;;6.28;3.60;;;;;;;28.15;78.72;96149.44;5045733;28;20071;-53
2022/07/28 10:48:15;;;;;;;5.07;3.22;;;;;;;28.53;77.28;96144.75;5051916;28;20072;-52
2022/07/28 10:50:44;;;;;;;5.22;3.05;;;;;;;28.42;82.26;96147.66;5051825;28;20079;-52
2022/07/28 10:53:20;;;;;;;5.28;3.35;;;;;;;28.56;71.12;96138.78;5040560;28;20075;-50
2022/07/28 10:55:52;;;;;;;6.55;3.25;;;;;;;29.09;73.21;96141.38;5045749;28;20057;-58
2022/07/28 10:58:26;;;;;;;5.90;3.10;;;;;;;28.80;68.86;96147.28;5046299;28;20064;-48
2022/07/28 11:00:54;;;;;;;4.43;3.38;;;;;;;28.60;68.27;96145.31;5051901;28;20080;-52
2022/07/28 11:03:38;;;;;;;6.72;3.15;;;;;;;29.16;65.10;96146.53;5051250;28;20077;-47
2022/07/28 11:06:25;;;;;;;3.92;3.05;;;;;;;29.05;63.06;96148.41;5053498;28;20080;-49
2022/07/28 11:08:54;;;;;;;5.30;3.15;;;;;;;28.80;66.63;96149.97;5052224;28;20474;-52
2022/07/28 11:11:45;;;;;;;4.70;3.53;;;;;;;28.89;66.57;96152.97;5051832;28;20079;-55
2022/07/28 11:14:34;;;;;;;4.88;3.08;;;;;;;28.52;65.50;96147.72;5047447;28;20080;-48
2022/07/28 11:17:15;;;;;;;4.80;3.47;;;;;;;29.10;69.90;96141.06;5039017;28;20048;-56
2022/07/28 11:19:57;;;;;;;5.30;3.00;;;;;;;28.63;65.79;96144.78;5046603;28;20083;-47
2022/07/28 11:22:45;;;;;;;5.97;3.40;;;;;;;29.08;70.50;96147.88;5051159;28;20072;-52
2022/07/28 11:25:15;;;;;;;5.18;3.50;;;;;;;29.14;70.43;96145.97;5051289;28;20478;-46
2022/07/28 11:28:04;;;;;;;5.43;3.33;;;;;;;29.24;63.34;96140.53;5051360;28;20073;-48
2022/07/28 11:30:53;;;;;;;5.40;3.30;;;;;;;29.87;63.24;96134.81;5045199;28;20056;-48
2022/07/28 11:33:23;;;;;;;5.45;3.42;;;;;;;29.17;66.30;96138.09;5041755;28;20081;-49
2022/07/28 11:35:55;;;;;;;4.68;3.22;;;;;;;29.48;70.60;96132.66;5051254;28;20076;-50
2022/07/28 11:38:24;;;;;;;4.40;3.30;;;;;;;29.09;59.92;96131.31;5048601;28;20068;-49
2022/07/28 11:40:54;;;;;;;4.88;3.20;;;;;;;29.40;58.65;96144.09;5050748;28;20515;-53